Azusa, CA (91702)

4:44 PM PDT on September 18, 2014 (GMT -0700)
Mountain Cove Azusa Real Estate | Change Station
CLOSE
Current Station
Personal Weather Station
Location: By Dolf in AZUSA, CA
Elevation: 686 ft
Nearby Weather Stations

Elev 686 ft 34.15 °N, 117.91 °W | Updated 1 second ago

Clear
Clear
82.0 °F
Feels Like 83 °F
N
3.5
Wind Variable Wind from SSE
Gusts 3.5 mph

Today
High -- | Low -- °F
--% Chance of Precip.
Yesterday
High -- | Low -- °F
Precip. -- in
6:36 AM 6:53 PM
Waning Crescent, 23% visible
Pressure 29.85 in
Visibility 10.0 miles
Clouds Clear
Heat Index 83 °F
Dew Point 64 °F
Humidity 54%
Rainfall 0.00 in
Snow Depth 0 in , 0 in , 5 in
UV 0.0 out of 12
Pollen 6.80 out of 12
Ozone Good
PM2.5 Good
Flu Activity Not available.
METAR KPOC 182247Z 26010KT 10SM SKC 28/16 A2985

More Conditions Fewer Conditions

Pressure 29.85 in
Visibility 10.0 miles
Clouds Clear
Heat Index 83 °F
Dew Point 64 °F
Humidity 54%
Rainfall 0.00 in
Snow Depth 0 in , 0 in , 5 in
UV 0.0 out of 12
Pollen 6.80 out of 12
Ozone Good
PM2.5 Good
Flu Activity Not available.
METAR KPOC 182247Z 26010KT 10SM SKC 28/16 A2985

More Conditions Fewer Conditions

10-Day Weather Forecast

Almanac

Astronomy

Sep. 18, 2014 Rise Set
Actual Time 6:36 AM PDT 6:53 PM PDT
Civil Twilight 6:11 AM PDT 7:18 PM PDT
Nautical Twilight 5:42 AM PDT 7:48 PM PDT
Astronomical Twilight 5:12 AM PDT 8:17 PM PDT
Moon 1:43 AM PDT 3:38 PM PDT
Length of Visible Light 13h 06m
Length of Day
12h 16m
Tomorrow will be 2m 7s shorter.
Waning Crescent, 23% of the Moon is Illuminated
Today
Waning Crescent
Sep 24
New
Oct 1
First Quarter
Oct 8
Full
Oct 15
Last Quarter

Today's Extremes

State Highs State Lows

Community

WunderPhotos

Upload Photos

1,754,489 photos uploaded!

WunderBlogs® & News

By Dr. Jeff Masters
Director of Meteorology, Weather Underground
By Kari Strenfel
Meteorologist, Weather Underground
By Christopher C. Burt
Weather Historian, Weather Underground
September 18, 2014
September 18, 2014
September 18, 2014

Nearby

Air Quality

  Air Quality AQ Index Pollutant
Yesterday Good
OZONE
Yesterday Good
PM10
Current Good
OZONE
Current Good
PM2.5
Friday Good
OZONE
Friday Good
PM10
Friday Good
CO
Friday Good
NO2

Snow Depth

Station Depth Elevation
Tahoe City Cross 0 in 6750 ft
Echo Peak 0 in 7800 ft
CSS Lab 5 in 6900 ft
Burnside Lake 0 in 8139 ft
Adin Mountain 1 in 6200 ft

Earthquake Activity

City Distance Mag. Time & Date
Corcoran, California 167 miles 3.0 3:59 PM PDT
2014-09-18
La Quinta, California 93 miles 2.7 8:59 PM PDT
2014-09-15
Minimum magnitude displayed is 2.5.

Coastal Water Temperatures

Place Temperature
No Stations Reporting

Nearby Weather Stations